sensor_id;sensor_type;location;lat;lon;timestamp;temperature;humidity
45207;DHT22;30950;53.086;21.576;2023-04-25T00:00:41;12.00;99.90
45207;DHT22;30950;53.086;21.576;2023-04-25T00:03:20;12.00;99.90
45207;DHT22;30950;53.086;21.576;2023-04-25T00:05:48;12.00;99.90
45207;DHT22;30950;53.086;21.576;2023-04-25T00:08:16;11.90;99.90
45207;DHT22;30950;53.086;21.576;2023-04-25T00:10:44;11.90;99.90
45207;DHT22;30950;53.086;21.576;2023-04-25T00:13:11;11.90;99.90
45207;DHT22;30950;53.086;21.576;2023-04-25T00:15:39;11.80;99.90
45207;DHT22;30950;53.086;21.576;2023-04-25T00:18:09;11.70;99.90
45207;DHT22;30950;53.086;21.576;2023-04-25T00:20:38;11.70;99.90
45207;DHT22;30950;53.086;21.576;2023-04-25T00:23:05;11.70;99.90
45207;DHT22;30950;53.086;21.576;2023-04-25T00:25:33;11.70;99.90
45207;DHT22;30950;53.086;21.576;2023-04-25T00:28:00;11.70;99.90
45207;DHT22;30950;53.086;21.576;2023-04-25T00:30:28;11.60;99.90
45207;DHT22;30950;53.086;21.576;2023-04-25T00:32:55;11.60;99.90
45207;DHT22;30950;53.086;21.576;2023-04-25T00:35:23;11.60;99.90
45207;DHT22;30950;53.086;21.576;2023-04-25T00:37:50;11.50;99.90
45207;DHT22;30950;53.086;21.576;2023-04-25T00:40:17;11.50;99.90
45207;DHT22;30950;53.086;21.576;2023-04-25T00:42:46;11.40;99.90
45207;DHT22;30950;53.086;21.576;2023-04-25T00:45:14;11.40;99.90
45207;DHT22;30950;53.086;21.576;2023-04-25T00:47:43;11.30;99.90
45207;DHT22;30950;53.086;21.576;2023-04-25T00:50:11;11.30;99.90
45207;DHT22;30950;53.086;21.576;2023-04-25T00:52:43;11.20;99.90
45207;DHT22;30950;53.086;21.576;2023-04-25T00:55:11;11.20;99.90
45207;DHT22;30950;53.086;21.576;2023-04-25T00:57:40;11.10;99.90
45207;DHT22;30950;53.086;21.576;2023-04-25T01:00:08;11.10;99.90
45207;DHT22;30950;53.086;21.576;2023-04-25T01:02:37;11.10;99.90
45207;DHT22;30950;53.086;21.576;2023-04-25T01:05:05;11.30;99.90
45207;DHT22;30950;53.086;21.576;2023-04-25T01:07:32;10.90;99.90
45207;DHT22;30950;53.086;21.576;2023-04-25T01:10:01;10.90;99.90
45207;DHT22;30950;53.086;21.576;2023-04-25T01:12:29;10.90;99.90
45207;DHT22;30950;53.086;21.576;2023-04-25T01:14:56;10.80;99.90
45207;DHT22;30950;53.086;21.576;2023-04-25T01:17:24;10.70;99.90
45207;DHT22;30950;53.086;21.576;2023-04-25T01:19:52;10.80;99.90
45207;DHT22;30950;53.086;21.576;2023-04-25T01:22:19;10.70;99.90
45207;DHT22;30950;53.086;21.576;2023-04-25T01:24:48;10.90;99.90
45207;DHT22;30950;53.086;21.576;2023-04-25T01:27:16;10.60;99.90
45207;DHT22;30950;53.086;21.576;2023-04-25T01:29:44;10.70;99.90
45207;DHT22;30950;53.086;21.576;2023-04-25T01:32:13;10.70;99.90
45207;DHT22;30950;53.086;21.576;2023-04-25T01:34:41;10.80;99.90
45207;DHT22;30950;53.086;21.576;2023-04-25T01:37:08;10.60;99.90
45207;DHT22;30950;53.086;21.576;2023-04-25T01:39:36;10.50;99.90
45207;DHT22;30950;53.086;21.576;2023-04-25T01:42:03;10.60;99.90
45207;DHT22;30950;53.086;21.576;2023-04-25T01:44:31;10.60;99.90
45207;DHT22;30950;53.086;21.576;2023-04-25T01:46:59;10.50;99.90
45207;DHT22;30950;53.086;21.576;2023-04-25T01:49:27;10.50;99.90
45207;DHT22;30950;53.086;21.576;2023-04-25T01:51:55;10.50;99.90
45207;DHT22;30950;53.086;21.576;2023-04-25T01:54:22;10.50;99.90
45207;DHT22;30950;53.086;21.576;2023-04-25T01:56:52;10.50;99.90
45207;DHT22;30950;53.086;21.576;2023-04-25T01:59:21;10.40;99.90
45207;DHT22;30950;53.086;21.576;2023-04-25T02:02:03;10.50;99.90
45207;DHT22;30950;53.086;21.576;2023-04-25T02:04:33;10.40;99.90
45207;DHT22;30950;53.086;21.576;2023-04-25T02:07:01;10.40;99.90
45207;DHT22;30950;53.086;21.576;2023-04-25T02:09:47;10.40;99.90
45207;DHT22;30950;53.086;21.576;2023-04-25T02:12:16;10.40;99.90
45207;DHT22;30950;53.086;21.576;2023-04-25T02:15:04;10.30;99.90
45207;DHT22;30950;53.086;21.576;2023-04-25T02:17:41;10.30;99.90
45207;DHT22;30950;53.086;21.576;2023-04-25T02:20:09;10.30;99.90
45207;DHT22;30950;53.086;21.576;2023-04-25T02:22:39;10.30;99.90
45207;DHT22;30950;53.086;21.576;2023-04-25T02:25:06;10.30;99.90
45207;DHT22;30950;53.086;21.576;2023-04-25T02:27:35;10.30;99.90
45207;DHT22;30950;53.086;21.576;2023-04-25T02:30:03;10.30;99.90
45207;DHT22;30950;53.086;21.576;2023-04-25T02:32:33;10.20;99.90
45207;DHT22;30950;53.086;21.576;2023-04-25T02:35:02;10.20;99.90
45207;DHT22;30950;53.086;21.576;2023-04-25T02:37:33;10.20;99.90
45207;DHT22;30950;53.086;21.576;2023-04-25T02:40:02;10.10;99.90
45207;DHT22;30950;53.086;21.576;2023-04-25T02:42:32;10.10;99.90
45207;DHT22;30950;53.086;21.576;2023-04-25T02:44:59;10.40;99.90
45207;DHT22;30950;53.086;21.576;2023-04-25T02:47:27;10.00;99.90
45207;DHT22;30950;53.086;21.576;2023-04-25T02:49:54;10.00;99.90
45207;DHT22;30950;53.086;21.576;2023-04-25T02:52:22;9.90;99.90
45207;DHT22;30950;53.086;21.576;2023-04-25T02:55:01;10.00;99.90
45207;DHT22;30950;53.086;21.576;2023-04-25T02:57:30;9.90;99.90
45207;DHT22;30950;53.086;21.576;2023-04-25T02:59:57;9.90;99.90
45207;DHT22;30950;53.086;21.576;2023-04-25T03:02:24;9.90;99.90
45207;DHT22;30950;53.086;21.576;2023-04-25T03:04:52;9.80;99.90
45207;DHT22;30950;53.086;21.576;2023-04-25T03:07:19;9.80;99.90
45207;DHT22;30950;53.086;21.576;2023-04-25T03:09:48;9.90;99.90
45207;DHT22;30950;53.086;21.576;2023-04-25T03:12:16;9.90;99.90
45207;DHT22;30950;53.086;21.576;2023-04-25T03:14:43;9.90;99.90
45207;DHT22;30950;53.086;21.576;2023-04-25T03:17:11;9.80;99.90
45207;DHT22;30950;53.086;21.576;2023-04-25T03:19:38;9.80;99.90
45207;DHT22;30950;53.086;21.576;2023-04-25T03:22:06;9.80;99.90
45207;DHT22;30950;53.086;21.576;2023-04-25T03:24:33;9.90;99.90
45207;DHT22;30950;53.086;21.576;2023-04-25T03:27:00;9.80;99.90
45207;DHT22;30950;53.086;21.576;2023-04-25T03:29:28;9.90;99.90
45207;DHT22;30950;53.086;21.576;2023-04-25T03:31:56;9.80;99.90
45207;DHT22;30950;53.086;21.576;2023-04-25T03:34:24;9.80;99.90
45207;DHT22;30950;53.086;21.576;2023-04-25T03:36:51;9.80;99.90
45207;DHT22;30950;53.086;21.576;2023-04-25T03:39:18;9.80;99.90
45207;DHT22;30950;53.086;21.576;2023-04-25T03:41:50;9.70;99.90
45207;DHT22;30950;53.086;21.576;2023-04-25T03:44:18;9.70;99.90
45207;DHT22;30950;53.086;21.576;2023-04-25T03:46:46;9.70;99.90
45207;DHT22;30950;53.086;21.576;2023-04-25T03:49:13;9.70;99.90
45207;DHT22;30950;53.086;21.576;2023-04-25T03:52:14;9.60;99.90
45207;DHT22;30950;53.086;21.576;2023-04-25T03:54:44;9.60;99.90
45207;DHT22;30950;53.086;21.576;2023-04-25T03:57:15;9.50;99.90
45207;DHT22;30950;53.086;21.576;2023-04-25T03:59:43;9.40;99.90
45207;DHT22;30950;53.086;21.576;2023-04-25T04:02:13;9.40;99.90
45207;DHT22;30950;53.086;21.576;2023-04-25T04:04:41;9.30;99.90
45207;DHT22;30950;53.086;21.576;2023-04-25T04:07:12;9.30;99.90
45207;DHT22;30950;53.086;21.576;2023-04-25T04:09:41;9.20;99.90
45207;DHT22;30950;53.086;21.576;2023-04-25T04:12:15;9.30;99.90
45207;DHT22;30950;53.086;21.576;2023-04-25T04:14:43;9.20;99.90
45207;DHT22;30950;53.086;21.576;2023-04-25T04:17:10;9.20;99.90
45207;DHT22;30950;53.086;21.576;2023-04-25T04:19:37;9.20;99.90
45207;DHT22;30950;53.086;21.576;2023-04-25T04:22:10;9.20;99.90
45207;DHT22;30950;53.086;21.576;2023-04-25T04:24:38;9.20;99.90
45207;DHT22;30950;53.086;21.576;2023-04-25T04:27:09;9.20;99.90
45207;DHT22;30950;53.086;21.576;2023-04-25T04:29:52;9.20;99.90
45207;DHT22;30950;53.086;21.576;2023-04-25T04:32:31;9.20;99.90
45207;DHT22;30950;53.086;21.576;2023-04-25T04:35:01;9.20;99.90
45207;DHT22;30950;53.086;21.576;2023-04-25T04:37:28;9.30;99.90
45207;DHT22;30950;53.086;21.576;2023-04-25T04:39:57;9.30;99.90
45207;DHT22;30950;53.086;21.576;2023-04-25T04:42:37;9.30;99.90
45207;DHT22;30950;53.086;21.576;2023-04-25T04:45:31;9.30;99.90
45207;DHT22;30950;53.086;21.576;2023-04-25T04:48:08;9.40;99.90
45207;DHT22;30950;53.086;21.576;2023-04-25T04:50:55;9.60;99.90
45207;DHT22;30950;53.086;21.576;2023-04-25T04:53:41;9.40;99.90
45207;DHT22;30950;53.086;21.576;2023-04-25T04:56:17;9.60;99.90
45207;DHT22;30950;53.086;21.576;2023-04-25T04:58:51;9.80;99.90
45207;DHT22;30950;53.086;21.576;2023-04-25T05:01:33;9.80;99.90
45207;DHT22;30950;53.086;21.576;2023-04-25T05:04:29;9.80;99.90
45207;DHT22;30950;53.086;21.576;2023-04-25T05:07:14;9.90;99.90
45207;DHT22;30950;53.086;21.576;2023-04-25T05:10:03;10.10;99.90
45207;DHT22;30950;53.086;21.576;2023-04-25T05:12:57;10.30;99.90
45207;DHT22;30950;53.086;21.576;2023-04-25T05:15:41;10.50;99.90
45207;DHT22;30950;53.086;21.576;2023-04-25T05:18:17;10.70;99.90
45207;DHT22;30950;53.086;21.576;2023-04-25T05:21:15;10.80;99.90
45207;DHT22;30950;53.086;21.576;2023-04-25T05:24:05;11.00;99.90
45207;DHT22;30950;53.086;21.576;2023-04-25T05:26:44;11.20;99.90
45207;DHT22;30950;53.086;21.576;2023-04-25T05:29:41;11.40;99.90
45207;DHT22;30950;53.086;21.576;2023-04-25T05:32:34;11.50;99.90
45207;DHT22;30950;53.086;21.576;2023-04-25T05:35:03;11.70;99.90
45207;DHT22;30950;53.086;21.576;2023-04-25T05:37:38;11.80;99.90
45207;DHT22;30950;53.086;21.576;2023-04-25T05:40:11;11.90;99.90
45207;DHT22;30950;53.086;21.576;2023-04-25T05:42:44;12.10;99.90
45207;DHT22;30950;53.086;21.576;2023-04-25T05:45:20;12.20;99.90
45207;DHT22;30950;53.086;21.576;2023-04-25T05:48:00;12.30;99.90
45207;DHT22;30950;53.086;21.576;2023-04-25T05:50:43;12.40;99.90
45207;DHT22;30950;53.086;21.576;2023-04-25T05:53:22;12.50;99.90
45207;DHT22;30950;53.086;21.576;2023-04-25T05:55:58;12.60;99.90
45207;DHT22;30950;53.086;21.576;2023-04-25T05:58:27;12.70;99.90
45207;DHT22;30950;53.086;21.576;2023-04-25T06:00:54;12.80;99.90
45207;DHT22;30950;53.086;21.576;2023-04-25T06:03:22;13.00;99.90
45207;DHT22;30950;53.086;21.576;2023-04-25T06:05:50;13.00;99.90
45207;DHT22;30950;53.086;21.576;2023-04-25T06:08:19;13.10;99.90
45207;DHT22;30950;53.086;21.576;2023-04-25T06:10:46;13.20;99.90
45207;DHT22;30950;53.086;21.576;2023-04-25T06:13:14;13.30;99.90
45207;DHT22;30950;53.086;21.576;2023-04-25T06:15:42;13.30;99.90
45207;DHT22;30950;53.086;21.576;2023-04-25T06:18:11;13.30;99.90
45207;DHT22;30950;53.086;21.576;2023-04-25T06:20:39;13.60;99.90
45207;DHT22;30950;53.086;21.576;2023-04-25T06:23:06;13.50;99.90
45207;DHT22;30950;53.086;21.576;2023-04-25T06:26:06;13.60;99.90
45207;DHT22;30950;53.086;21.576;2023-04-25T06:28:37;13.60;99.90
45207;DHT22;30950;53.086;21.576;2023-04-25T06:31:05;13.60;99.90
45207;DHT22;30950;53.086;21.576;2023-04-25T06:33:32;13.60;99.90
45207;DHT22;30950;53.086;21.576;2023-04-25T06:36:00;13.70;99.90
45207;DHT22;30950;53.086;21.576;2023-04-25T06:38:28;13.70;99.90
45207;DHT22;30950;53.086;21.576;2023-04-25T06:40:57;13.70;99.90
45207;DHT22;30950;53.086;21.576;2023-04-25T06:43:26;13.80;99.90
45207;DHT22;30950;53.086;21.576;2023-04-25T06:46:05;13.80;99.90
45207;DHT22;30950;53.086;21.576;2023-04-25T06:48:40;14.00;99.90
45207;DHT22;30950;53.086;21.576;2023-04-25T06:51:08;14.10;99.90
45207;DHT22;30950;53.086;21.576;2023-04-25T06:53:36;14.20;99.90
45207;DHT22;30950;53.086;21.576;2023-04-25T06:56:07;14.20;99.90
45207;DHT22;30950;53.086;21.576;2023-04-25T06:58:44;14.30;99.90
45207;DHT22;30950;53.086;21.576;2023-04-25T07:01:32;14.40;99.90
45207;DHT22;30950;53.086;21.576;2023-04-25T07:04:04;14.50;99.90
45207;DHT22;30950;53.086;21.576;2023-04-25T07:06:34;14.50;99.90
45207;DHT22;30950;53.086;21.576;2023-04-25T07:09:04;14.60;99.90
45207;DHT22;30950;53.086;21.576;2023-04-25T07:11:32;14.60;99.90
45207;DHT22;30950;53.086;21.576;2023-04-25T07:13:59;14.50;99.90
45207;DHT22;30950;53.086;21.576;2023-04-25T07:16:27;14.60;99.90
45207;DHT22;30950;53.086;21.576;2023-04-25T07:18:55;14.60;99.90
45207;DHT22;30950;53.086;21.576;2023-04-25T07:21:22;14.60;99.90
45207;DHT22;30950;53.086;21.576;2023-04-25T07:23:51;14.60;99.90
45207;DHT22;30950;53.086;21.576;2023-04-25T07:26:23;14.70;99.90
45207;DHT22;30950;53.086;21.576;2023-04-25T07:29:13;14.70;99.90
45207;DHT22;30950;53.086;21.576;2023-04-25T07:31:40;14.70;99.90
45207;DHT22;30950;53.086;21.576;2023-04-25T07:34:08;14.60;99.90
45207;DHT22;30950;53.086;21.576;2023-04-25T07:36:37;14.50;99.90
45207;DHT22;30950;53.086;21.576;2023-04-25T07:39:05;14.50;99.90
45207;DHT22;30950;53.086;21.576;2023-04-25T07:41:32;14.40;99.90
45207;DHT22;30950;53.086;21.576;2023-04-25T07:44:00;14.40;99.90
45207;DHT22;30950;53.086;21.576;2023-04-25T07:46:30;14.40;99.90
45207;DHT22;30950;53.086;21.576;2023-04-25T07:48:57;14.30;99.90
45207;DHT22;30950;53.086;21.576;2023-04-25T07:51:25;14.30;99.90
45207;DHT22;30950;53.086;21.576;2023-04-25T07:53:55;14.10;99.90
45207;DHT22;30950;53.086;21.576;2023-04-25T07:56:22;14.00;99.90
45207;DHT22;30950;53.086;21.576;2023-04-25T07:58:52;14.00;99.90
45207;DHT22;30950;53.086;21.576;2023-04-25T08:01:20;13.90;99.90
45207;DHT22;30950;53.086;21.576;2023-04-25T08:03:53;13.90;99.90
45207;DHT22;30950;53.086;21.576;2023-04-25T08:06:27;14.00;99.90
45207;DHT22;30950;53.086;21.576;2023-04-25T08:09:06;14.10;99.90
45207;DHT22;30950;53.086;21.576;2023-04-25T08:11:38;14.00;99.90
45207;DHT22;30950;53.086;21.576;2023-04-25T08:14:07;14.00;99.90
45207;DHT22;30950;53.086;21.576;2023-04-25T08:16:35;14.00;99.90
45207;DHT22;30950;53.086;21.576;2023-04-25T08:19:03;14.00;99.90
45207;DHT22;30950;53.086;21.576;2023-04-25T08:21:30;14.00;99.90
45207;DHT22;30950;53.086;21.576;2023-04-25T08:24:01;14.00;99.90
45207;DHT22;30950;53.086;21.576;2023-04-25T08:26:36;14.00;99.90
45207;DHT22;30950;53.086;21.576;2023-04-25T08:29:04;14.10;99.90
45207;DHT22;30950;53.086;21.576;2023-04-25T08:31:35;14.10;99.90
45207;DHT22;30950;53.086;21.576;2023-04-25T08:34:03;14.20;99.90
45207;DHT22;30950;53.086;21.576;2023-04-25T08:36:47;14.30;99.90
45207;DHT22;30950;53.086;21.576;2023-04-25T08:39:53;14.40;99.90
45207;DHT22;30950;53.086;21.576;2023-04-25T08:42:57;14.50;99.90
45207;DHT22;30950;53.086;21.576;2023-04-25T08:45:27;14.50;99.90
45207;DHT22;30950;53.086;21.576;2023-04-25T08:47:56;14.50;99.90
45207;DHT22;30950;53.086;21.576;2023-04-25T08:50:24;14.40;99.90
45207;DHT22;30950;53.086;21.576;2023-04-25T08:52:54;14.40;99.90
45207;DHT22;30950;53.086;21.576;2023-04-25T08:55:22;14.30;99.90
45207;DHT22;30950;53.086;21.576;2023-04-25T08:57:54;14.20;99.90
45207;DHT22;30950;53.086;21.576;2023-04-25T09:00:23;14.00;99.90
45207;DHT22;30950;53.086;21.576;2023-04-25T09:02:52;13.90;99.90
45207;DHT22;30950;53.086;21.576;2023-04-25T09:05:19;13.60;99.90
45207;DHT22;30950;53.086;21.576;2023-04-25T09:07:51;13.40;99.90
45207;DHT22;30950;53.086;21.576;2023-04-25T09:10:18;13.20;99.90
45207;DHT22;30950;53.086;21.576;2023-04-25T09:13:02;13.00;99.90
45207;DHT22;30950;53.086;21.576;2023-04-25T09:15:33;12.80;99.90
45207;DHT22;30950;53.086;21.576;2023-04-25T09:18:11;12.60;99.90
45207;DHT22;30950;53.086;21.576;2023-04-25T09:20:43;12.40;99.90
45207;DHT22;30950;53.086;21.576;2023-04-25T09:23:29;12.20;99.90
45207;DHT22;30950;53.086;21.576;2023-04-25T09:25:57;12.10;99.90
45207;DHT22;30950;53.086;21.576;2023-04-25T09:28:25;12.00;99.90
45207;DHT22;30950;53.086;21.576;2023-04-25T09:30:58;11.80;99.90
45207;DHT22;30950;53.086;21.576;2023-04-25T09:33:33;11.80;99.90
45207;DHT22;30950;53.086;21.576;2023-04-25T09:36:08;11.70;99.90
45207;DHT22;30950;53.086;21.576;2023-04-25T09:39:01;11.60;99.90
45207;DHT22;30950;53.086;21.576;2023-04-25T09:41:31;11.60;99.90
45207;DHT22;30950;53.086;21.576;2023-04-25T09:44:01;11.60;99.90
45207;DHT22;30950;53.086;21.576;2023-04-25T09:46:34;11.60;99.90
45207;DHT22;30950;53.086;21.576;2023-04-25T09:49:15;11.50;99.90
45207;DHT22;30950;53.086;21.576;2023-04-25T09:51:59;11.50;99.90
45207;DHT22;30950;53.086;21.576;2023-04-25T09:54:50;11.40;99.90
45207;DHT22;30950;53.086;21.576;2023-04-25T09:57:25;12.20;99.90
45207;DHT22;30950;53.086;21.576;2023-04-25T09:59:55;11.40;99.90
45207;DHT22;30950;53.086;21.576;2023-04-25T10:02:26;11.70;99.90
45207;DHT22;30950;53.086;21.576;2023-04-25T10:05:01;11.40;99.90
45207;DHT22;30950;53.086;21.576;2023-04-25T10:07:37;11.40;99.90
45207;DHT22;30950;53.086;21.576;2023-04-25T10:10:12;11.40;99.90
45207;DHT22;30950;53.086;21.576;2023-04-25T10:12:40;11.40;99.90
45207;DHT22;30950;53.086;21.576;2023-04-25T10:15:10;11.80;99.90
45207;DHT22;30950;53.086;21.576;2023-04-25T10:17:38;11.50;99.90
45207;DHT22;30950;53.086;21.576;2023-04-25T10:20:08;11.40;99.90
45207;DHT22;30950;53.086;21.576;2023-04-25T10:22:45;11.60;99.90
45207;DHT22;30950;53.086;21.576;2023-04-25T10:25:13;11.70;99.90
45207;DHT22;30950;53.086;21.576;2023-04-25T10:27:41;11.80;99.90
45207;DHT22;30950;53.086;21.576;2023-04-25T10:30:18;12.00;99.90
45207;DHT22;30950;53.086;21.576;2023-04-25T10:32:45;12.20;99.90
45207;DHT22;30950;53.086;21.576;2023-04-25T10:35:15;12.30;99.90
45207;DHT22;30950;53.086;21.576;2023-04-25T10:38:04;12.50;99.90
45207;DHT22;30950;53.086;21.576;2023-04-25T10:40:33;12.60;99.90
45207;DHT22;30950;53.086;21.576;2023-04-25T10:48:51;13.10;99.90
45207;DHT22;30950;53.086;21.576;2023-04-25T10:56:27;13.50;99.90
45207;DHT22;30950;53.086;21.576;2023-04-25T10:59:13;13.70;99.90
45207;DHT22;30950;53.086;21.576;2023-04-25T11:01:47;13.80;99.90
45207;DHT22;30950;53.086;21.576;2023-04-25T11:04:25;13.80;99.90
45207;DHT22;30950;53.086;21.576;2023-04-25T11:09:35;13.80;99.90
45207;DHT22;30950;53.086;21.576;2023-04-25T11:12:03;13.80;99.90
45207;DHT22;30950;53.086;21.576;2023-04-25T11:14:30;13.80;99.90
45207;DHT22;30950;53.086;21.576;2023-04-25T11:16:58;13.90;99.90
45207;DHT22;30950;53.086;21.576;2023-04-25T11:19:27;14.00;99.90
45207;DHT22;30950;53.086;21.576;2023-04-25T11:21:59;14.10;99.90
45207;DHT22;30950;53.086;21.576;2023-04-25T11:24:32;14.20;99.90
45207;DHT22;30950;53.086;21.576;2023-04-25T11:27:00;14.30;99.90
45207;DHT22;30950;53.086;21.576;2023-04-25T11:29:31;14.30;99.90
45207;DHT22;30950;53.086;21.576;2023-04-25T11:31:59;14.30;99.90
45207;DHT22;30950;53.086;21.576;2023-04-25T11:34:29;14.30;99.90
45207;DHT22;30950;53.086;21.576;2023-04-25T11:37:01;14.20;99.90
45207;DHT22;30950;53.086;21.576;2023-04-25T11:39:29;14.20;99.90
45207;DHT22;30950;53.086;21.576;2023-04-25T11:41:57;14.20;99.90
45207;DHT22;30950;53.086;21.576;2023-04-25T11:44:26;14.20;99.90
45207;DHT22;30950;53.086;21.576;2023-04-25T11:46:55;14.10;99.90
45207;DHT22;30950;53.086;21.576;2023-04-25T11:49:22;14.00;99.90
45207;DHT22;30950;53.086;21.576;2023-04-25T11:51:52;13.90;99.90
45207;DHT22;30950;53.086;21.576;2023-04-25T11:54:19;13.80;99.90
45207;DHT22;30950;53.086;21.576;2023-04-25T11:56:46;13.80;99.90
45207;DHT22;30950;53.086;21.576;2023-04-25T11:59:14;13.90;99.90
45207;DHT22;30950;53.086;21.576;2023-04-25T12:01:50;13.90;99.90
45207;DHT22;30950;53.086;21.576;2023-04-25T12:04:24;14.00;99.90
45207;DHT22;30950;53.086;21.576;2023-04-25T12:06:54;14.10;99.90
45207;DHT22;30950;53.086;21.576;2023-04-25T12:09:32;14.10;99.90
45207;DHT22;30950;53.086;21.576;2023-04-25T12:12:01;14.20;99.90
45207;DHT22;30950;53.086;21.576;2023-04-25T12:14:33;14.30;99.90
45207;DHT22;30950;53.086;21.576;2023-04-25T12:17:03;14.20;99.90
45207;DHT22;30950;53.086;21.576;2023-04-25T12:19:33;14.20;99.90
45207;DHT22;30950;53.086;21.576;2023-04-25T12:22:02;14.20;99.90
45207;DHT22;30950;53.086;21.576;2023-04-25T12:24:33;14.30;99.90
45207;DHT22;30950;53.086;21.576;2023-04-25T12:27:06;14.30;99.90
45207;DHT22;30950;53.086;21.576;2023-04-25T12:29:35;14.30;99.90
45207;DHT22;30950;53.086;21.576;2023-04-25T12:32:16;14.40;99.90
45207;DHT22;30950;53.086;21.576;2023-04-25T12:34:44;14.40;99.90
45207;DHT22;30950;53.086;21.576;2023-04-25T12:37:13;14.40;99.90
45207;DHT22;30950;53.086;21.576;2023-04-25T12:39:40;14.40;99.90
45207;DHT22;30950;53.086;21.576;2023-04-25T12:42:08;14.40;99.90
45207;DHT22;30950;53.086;21.576;2023-04-25T12:44:38;14.50;99.90
45207;DHT22;30950;53.086;21.576;2023-04-25T12:47:06;14.50;99.90
45207;DHT22;30950;53.086;21.576;2023-04-25T12:49:37;14.40;99.90
45207;DHT22;30950;53.086;21.576;2023-04-25T12:52:04;14.30;99.90
45207;DHT22;30950;53.086;21.576;2023-04-25T12:54:31;14.20;99.90
45207;DHT22;30950;53.086;21.576;2023-04-25T12:56:59;14.10;99.90
45207;DHT22;30950;53.086;21.576;2023-04-25T12:59:28;14.00;99.90
45207;DHT22;30950;53.086;21.576;2023-04-25T13:01:55;13.90;99.90
45207;DHT22;30950;53.086;21.576;2023-04-25T13:04:22;13.80;99.90
45207;DHT22;30950;53.086;21.576;2023-04-25T13:06:51;13.70;99.90
45207;DHT22;30950;53.086;21.576;2023-04-25T13:09:18;13.60;99.90
45207;DHT22;30950;53.086;21.576;2023-04-25T13:11:46;13.50;99.90
45207;DHT22;30950;53.086;21.576;2023-04-25T13:14:13;13.50;99.90
45207;DHT22;30950;53.086;21.576;2023-04-25T13:16:41;13.40;99.90
45207;DHT22;30950;53.086;21.576;2023-04-25T13:19:08;13.30;99.90
45207;DHT22;30950;53.086;21.576;2023-04-25T13:21:38;13.30;99.90
45207;DHT22;30950;53.086;21.576;2023-04-25T13:24:06;13.20;99.90
45207;DHT22;30950;53.086;21.576;2023-04-25T13:26:33;13.20;99.90
45207;DHT22;30950;53.086;21.576;2023-04-25T13:29:00;13.20;99.90
45207;DHT22;30950;53.086;21.576;2023-04-25T13:31:31;13.20;99.90
45207;DHT22;30950;53.086;21.576;2023-04-25T13:33:58;13.20;99.90
45207;DHT22;30950;53.086;21.576;2023-04-25T13:36:26;13.30;99.90
45207;DHT22;30950;53.086;21.576;2023-04-25T13:38:54;13.30;99.90
45207;DHT22;30950;53.086;21.576;2023-04-25T13:41:22;13.20;99.90
45207;DHT22;30950;53.086;21.576;2023-04-25T13:43:49;13.30;99.90
45207;DHT22;30950;53.086;21.576;2023-04-25T13:46:17;13.30;99.90
45207;DHT22;30950;53.086;21.576;2023-04-25T13:48:48;13.20;99.90
45207;DHT22;30950;53.086;21.576;2023-04-25T13:51:20;13.20;99.90
45207;DHT22;30950;53.086;21.576;2023-04-25T13:53:47;13.10;99.90
45207;DHT22;30950;53.086;21.576;2023-04-25T13:56:15;13.00;99.90
45207;DHT22;30950;53.086;21.576;2023-04-25T13:58:42;13.00;99.90
45207;DHT22;30950;53.086;21.576;2023-04-25T14:01:09;12.90;99.90
45207;DHT22;30950;53.086;21.576;2023-04-25T14:03:37;12.90;99.90
45207;DHT22;30950;53.086;21.576;2023-04-25T14:06:05;12.90;99.90
45207;DHT22;30950;53.086;21.576;2023-04-25T14:08:32;12.90;99.90
45207;DHT22;30950;53.086;21.576;2023-04-25T14:11:00;12.90;99.90
45207;DHT22;30950;53.086;21.576;2023-04-25T14:13:27;12.90;99.90
45207;DHT22;30950;53.086;21.576;2023-04-25T14:15:55;12.80;99.90
45207;DHT22;30950;53.086;21.576;2023-04-25T14:18:23;12.70;99.90
45207;DHT22;30950;53.086;21.576;2023-04-25T14:20:50;12.70;99.90
45207;DHT22;30950;53.086;21.576;2023-04-25T14:23:18;12.60;99.90
45207;DHT22;30950;53.086;21.576;2023-04-25T14:25:48;12.50;99.90
45207;DHT22;30950;53.086;21.576;2023-04-25T14:28:15;12.50;99.90
45207;DHT22;30950;53.086;21.576;2023-04-25T14:30:43;12.40;99.90
45207;DHT22;30950;53.086;21.576;2023-04-25T14:33:10;12.30;99.90
45207;DHT22;30950;53.086;21.576;2023-04-25T14:35:38;12.30;99.90
45207;DHT22;30950;53.086;21.576;2023-04-25T14:38:05;12.20;99.90
45207;DHT22;30950;53.086;21.576;2023-04-25T14:40:33;12.20;99.90
45207;DHT22;30950;53.086;21.576;2023-04-25T14:43:00;12.10;99.90
45207;DHT22;30950;53.086;21.576;2023-04-25T14:45:27;12.10;99.90
45207;DHT22;30950;53.086;21.576;2023-04-25T14:47:55;12.00;99.90
45207;DHT22;30950;53.086;21.576;2023-04-25T14:50:23;12.00;99.90
45207;DHT22;30950;53.086;21.576;2023-04-25T14:52:50;11.90;99.90
45207;DHT22;30950;53.086;21.576;2023-04-25T14:55:17;11.80;99.90
45207;DHT22;30950;53.086;21.576;2023-04-25T14:57:44;11.70;99.90
45207;DHT22;30950;53.086;21.576;2023-04-25T15:00:13;11.60;99.90
45207;DHT22;30950;53.086;21.576;2023-04-25T15:02:43;11.60;99.90
45207;DHT22;30950;53.086;21.576;2023-04-25T15:05:10;11.60;99.90
45207;DHT22;30950;53.086;21.576;2023-04-25T15:07:38;11.50;99.90
45207;DHT22;30950;53.086;21.576;2023-04-25T15:10:07;11.50;99.90
45207;DHT22;30950;53.086;21.576;2023-04-25T15:12:40;11.50;99.90
45207;DHT22;30950;53.086;21.576;2023-04-25T15:15:08;11.40;99.90
45207;DHT22;30950;53.086;21.576;2023-04-25T15:17:51;11.40;99.90
45207;DHT22;30950;53.086;21.576;2023-04-25T15:20:18;11.40;99.90
45207;DHT22;30950;53.086;21.576;2023-04-25T15:22:45;11.30;99.90
45207;DHT22;30950;53.086;21.576;2023-04-25T15:25:13;11.20;99.90
45207;DHT22;30950;53.086;21.576;2023-04-25T15:27:40;11.10;99.90
45207;DHT22;30950;53.086;21.576;2023-04-25T15:30:14;11.10;99.90
45207;DHT22;30950;53.086;21.576;2023-04-25T15:32:45;11.10;99.90
45207;DHT22;30950;53.086;21.576;2023-04-25T15:35:14;11.00;99.90
45207;DHT22;30950;53.086;21.576;2023-04-25T15:37:41;11.00;99.90
45207;DHT22;30950;53.086;21.576;2023-04-25T15:40:11;10.90;99.90
45207;DHT22;30950;53.086;21.576;2023-04-25T15:42:42;10.80;99.90
45207;DHT22;30950;53.086;21.576;2023-04-25T15:45:10;10.70;99.90
45207;DHT22;30950;53.086;21.576;2023-04-25T15:47:38;10.60;99.90
45207;DHT22;30950;53.086;21.576;2023-04-25T15:50:07;10.60;99.90
45207;DHT22;30950;53.086;21.576;2023-04-25T15:52:35;10.40;99.90
45207;DHT22;30950;53.086;21.576;2023-04-25T15:55:04;10.30;99.90